sensor_id;sensor_type;location;lat;lon;timestamp;temperature;humidity
13115;DHT22;6623;52.120;8.660;2023-02-11T00:00:33;6.50;80.60
13115;DHT22;6623;52.120;8.660;2023-02-11T00:02:59;6.50;80.70
13115;DHT22;6623;52.120;8.660;2023-02-11T00:05:28;6.40;80.70
13115;DHT22;6623;52.120;8.660;2023-02-11T00:07:53;6.40;80.80
13115;DHT22;6623;52.120;8.660;2023-02-11T00:10:19;6.50;80.90
13115;DHT22;6623;52.120;8.660;2023-02-11T00:12:44;6.40;80.90
13115;DHT22;6623;52.120;8.660;2023-02-11T00:15:10;6.50;81.00
13115;DHT22;6623;52.120;8.660;2023-02-11T00:17:35;6.50;81.10
13115;DHT22;6623;52.120;8.660;2023-02-11T00:20:01;6.50;81.20
13115;DHT22;6623;52.120;8.660;2023-02-11T00:22:27;6.50;81.20
13115;DHT22;6623;52.120;8.660;2023-02-11T00:24:52;6.50;81.30
13115;DHT22;6623;52.120;8.660;2023-02-11T00:27:18;6.50;81.40
13115;DHT22;6623;52.120;8.660;2023-02-11T00:29:43;6.50;81.50
13115;DHT22;6623;52.120;8.660;2023-02-11T00:32:09;6.50;81.50
13115;DHT22;6623;52.120;8.660;2023-02-11T00:34:35;6.50;81.60
13115;DHT22;6623;52.120;8.660;2023-02-11T00:37:02;6.60;81.70
13115;DHT22;6623;52.120;8.660;2023-02-11T00:39:28;6.50;81.60
13115;DHT22;6623;52.120;8.660;2023-02-11T00:41:53;6.50;81.70
13115;DHT22;6623;52.120;8.660;2023-02-11T00:44:19;6.60;81.80
13115;DHT22;6623;52.120;8.660;2023-02-11T00:46:45;6.60;81.90
13115;DHT22;6623;52.120;8.660;2023-02-11T00:49:11;6.60;81.90
13115;DHT22;6623;52.120;8.660;2023-02-11T00:51:36;6.60;82.00
13115;DHT22;6623;52.120;8.660;2023-02-11T00:54:02;6.60;82.00
13115;DHT22;6623;52.120;8.660;2023-02-11T00:56:28;6.60;82.10
13115;DHT22;6623;52.120;8.660;2023-02-11T00:58:53;6.60;82.10
13115;DHT22;6623;52.120;8.660;2023-02-11T01:01:19;6.60;82.20
13115;DHT22;6623;52.120;8.660;2023-02-11T01:03:47;6.60;82.20
13115;DHT22;6623;52.120;8.660;2023-02-11T01:06:12;6.60;82.20
13115;DHT22;6623;52.120;8.660;2023-02-11T01:08:38;6.60;82.30
13115;DHT22;6623;52.120;8.660;2023-02-11T01:11:07;6.60;82.40
13115;DHT22;6623;52.120;8.660;2023-02-11T01:13:35;6.60;82.40
13115;DHT22;6623;52.120;8.660;2023-02-11T01:16:08;6.60;82.50
13115;DHT22;6623;52.120;8.660;2023-02-11T01:18:35;6.60;82.50
13115;DHT22;6623;52.120;8.660;2023-02-11T01:21:04;6.60;82.60
13115;DHT22;6623;52.120;8.660;2023-02-11T01:23:29;6.60;82.70
13115;DHT22;6623;52.120;8.660;2023-02-11T01:25:55;6.60;82.80
13115;DHT22;6623;52.120;8.660;2023-02-11T01:28:23;6.60;82.90
13115;DHT22;6623;52.120;8.660;2023-02-11T01:30:49;6.60;83.00
13115;DHT22;6623;52.120;8.660;2023-02-11T01:33:15;6.70;83.20
13115;DHT22;6623;52.120;8.660;2023-02-11T01:35:41;6.60;83.20
13115;DHT22;6623;52.120;8.660;2023-02-11T01:38:22;6.60;83.30
13115;DHT22;6623;52.120;8.660;2023-02-11T01:40:58;6.60;83.40
13115;DHT22;6623;52.120;8.660;2023-02-11T01:43:25;6.60;83.40
13115;DHT22;6623;52.120;8.660;2023-02-11T01:46:02;6.60;83.50
13115;DHT22;6623;52.120;8.660;2023-02-11T01:48:33;6.60;83.50
13115;DHT22;6623;52.120;8.660;2023-02-11T01:51:10;6.60;83.60
13115;DHT22;6623;52.120;8.660;2023-02-11T01:53:37;6.70;83.80
13115;DHT22;6623;52.120;8.660;2023-02-11T01:56:24;6.60;83.80
13115;DHT22;6623;52.120;8.660;2023-02-11T01:59:32;6.60;84.00
13115;DHT22;6623;52.120;8.660;2023-02-11T02:02:02;6.60;84.10
13115;DHT22;6623;52.120;8.660;2023-02-11T02:04:32;6.60;84.10
13115;DHT22;6623;52.120;8.660;2023-02-11T02:07:07;6.60;84.20
13115;DHT22;6623;52.120;8.660;2023-02-11T02:09:41;6.60;84.90
13115;DHT22;6623;52.120;8.660;2023-02-11T02:12:11;6.60;84.30
13115;DHT22;6623;52.120;8.660;2023-02-11T02:14:38;6.60;84.40
13115;DHT22;6623;52.120;8.660;2023-02-11T02:17:05;6.60;84.40
13115;DHT22;6623;52.120;8.660;2023-02-11T02:22:56;6.70;84.50
13115;DHT22;6623;52.120;8.660;2023-02-11T02:25:52;6.60;84.50
13115;DHT22;6623;52.120;8.660;2023-02-11T02:29:05;6.60;84.50
13115;DHT22;6623;52.120;8.660;2023-02-11T02:31:58;6.70;84.60
13115;DHT22;6623;52.120;8.660;2023-02-11T02:34:37;6.60;84.60
13115;DHT22;6623;52.120;8.660;2023-02-11T02:37:30;6.60;84.60
13115;DHT22;6623;52.120;8.660;2023-02-11T02:39:58;6.70;84.70
13115;DHT22;6623;52.120;8.660;2023-02-11T02:42:30;6.70;84.70
13115;DHT22;6623;52.120;8.660;2023-02-11T02:44:59;6.70;84.70
13115;DHT22;6623;52.120;8.660;2023-02-11T02:47:25;6.70;84.80
13115;DHT22;6623;52.120;8.660;2023-02-11T02:49:50;6.70;84.80
13115;DHT22;6623;52.120;8.660;2023-02-11T02:57:45;6.70;85.00
13115;DHT22;6623;52.120;8.660;2023-02-11T03:03:30;6.70;85.10
13115;DHT22;6623;52.120;8.660;2023-02-11T03:06:01;6.70;85.00
13115;DHT22;6623;52.120;8.660;2023-02-11T03:08:39;6.70;85.10
13115;DHT22;6623;52.120;8.660;2023-02-11T03:11:08;6.70;85.20
13115;DHT22;6623;52.120;8.660;2023-02-11T03:13:35;6.70;85.20
13115;DHT22;6623;52.120;8.660;2023-02-11T03:16:15;6.70;85.20
13115;DHT22;6623;52.120;8.660;2023-02-11T03:18:45;6.70;85.30
13115;DHT22;6623;52.120;8.660;2023-02-11T03:21:13;6.70;85.20
13115;DHT22;6623;52.120;8.660;2023-02-11T03:23:49;6.70;85.20
13115;DHT22;6623;52.120;8.660;2023-02-11T03:26:31;6.70;85.30
13115;DHT22;6623;52.120;8.660;2023-02-11T03:34:30;6.70;85.40
13115;DHT22;6623;52.120;8.660;2023-02-11T03:37:13;6.70;85.50
13115;DHT22;6623;52.120;8.660;2023-02-11T03:39:46;6.60;85.50
13115;DHT22;6623;52.120;8.660;2023-02-11T03:42:12;6.60;85.60
13115;DHT22;6623;52.120;8.660;2023-02-11T03:45:04;6.60;85.60
13115;DHT22;6623;52.120;8.660;2023-02-11T03:47:28;6.60;85.70
13115;DHT22;6623;52.120;8.660;2023-02-11T03:49:56;6.60;85.80
13115;DHT22;6623;52.120;8.660;2023-02-11T03:52:24;6.60;85.90
13115;DHT22;6623;52.120;8.660;2023-02-11T03:54:57;6.50;85.90
13115;DHT22;6623;52.120;8.660;2023-02-11T03:57:27;6.50;86.10
13115;DHT22;6623;52.120;8.660;2023-02-11T03:59:58;6.50;86.20
13115;DHT22;6623;52.120;8.660;2023-02-11T04:02:27;6.50;86.40
13115;DHT22;6623;52.120;8.660;2023-02-11T04:04:53;6.50;86.40
13115;DHT22;6623;52.120;8.660;2023-02-11T04:07:19;6.50;87.10
13115;DHT22;6623;52.120;8.660;2023-02-11T04:09:45;6.50;86.60
13115;DHT22;6623;52.120;8.660;2023-02-11T04:12:10;6.50;86.60
13115;DHT22;6623;52.120;8.660;2023-02-11T04:14:36;6.50;86.60
13115;DHT22;6623;52.120;8.660;2023-02-11T04:17:02;6.50;86.60
13115;DHT22;6623;52.120;8.660;2023-02-11T04:19:27;6.60;86.60
13115;DHT22;6623;52.120;8.660;2023-02-11T04:21:56;6.60;86.70
13115;DHT22;6623;52.120;8.660;2023-02-11T04:24:21;6.60;86.70
13115;DHT22;6623;52.120;8.660;2023-02-11T04:26:53;6.60;86.60
13115;DHT22;6623;52.120;8.660;2023-02-11T04:29:25;6.60;86.70
13115;DHT22;6623;52.120;8.660;2023-02-11T04:31:50;6.60;86.70
13115;DHT22;6623;52.120;8.660;2023-02-11T04:34:16;6.70;86.70
13115;DHT22;6623;52.120;8.660;2023-02-11T04:36:42;6.70;86.70
13115;DHT22;6623;52.120;8.660;2023-02-11T04:39:08;6.60;86.70
13115;DHT22;6623;52.120;8.660;2023-02-11T04:41:33;6.60;86.60
13115;DHT22;6623;52.120;8.660;2023-02-11T04:43:59;6.70;86.70
13115;DHT22;6623;52.120;8.660;2023-02-11T04:46:24;6.70;86.70
13115;DHT22;6623;52.120;8.660;2023-02-11T04:48:50;6.70;86.70
13115;DHT22;6623;52.120;8.660;2023-02-11T04:51:16;6.70;86.70
13115;DHT22;6623;52.120;8.660;2023-02-11T04:53:44;6.70;86.60
13115;DHT22;6623;52.120;8.660;2023-02-11T04:56:10;6.70;86.60
13115;DHT22;6623;52.120;8.660;2023-02-11T04:58:35;6.70;86.60
13115;DHT22;6623;52.120;8.660;2023-02-11T05:01:06;6.70;86.50
13115;DHT22;6623;52.120;8.660;2023-02-11T05:03:44;6.70;86.50
13115;DHT22;6623;52.120;8.660;2023-02-11T05:06:10;6.70;86.50
13115;DHT22;6623;52.120;8.660;2023-02-11T05:08:35;6.70;86.40
13115;DHT22;6623;52.120;8.660;2023-02-11T05:11:01;6.70;87.00
13115;DHT22;6623;52.120;8.660;2023-02-11T05:13:27;6.80;86.40
13115;DHT22;6623;52.120;8.660;2023-02-11T05:15:53;6.80;86.40
13115;DHT22;6623;52.120;8.660;2023-02-11T05:18:22;6.70;86.30
13115;DHT22;6623;52.120;8.660;2023-02-11T05:20:48;6.70;86.30
13115;DHT22;6623;52.120;8.660;2023-02-11T05:23:13;6.70;86.30
13115;DHT22;6623;52.120;8.660;2023-02-11T05:25:39;6.70;86.30
13115;DHT22;6623;52.120;8.660;2023-02-11T05:28:08;6.70;86.30
13115;DHT22;6623;52.120;8.660;2023-02-11T05:30:33;6.70;86.20
13115;DHT22;6623;52.120;8.660;2023-02-11T05:32:59;6.80;86.20
13115;DHT22;6623;52.120;8.660;2023-02-11T05:35:24;6.80;86.20
13115;DHT22;6623;52.120;8.660;2023-02-11T05:37:50;6.70;86.10
13115;DHT22;6623;52.120;8.660;2023-02-11T05:40:16;6.70;86.10
13115;DHT22;6623;52.120;8.660;2023-02-11T05:42:41;6.80;86.20
13115;DHT22;6623;52.120;8.660;2023-02-11T05:45:07;6.80;86.20
13115;DHT22;6623;52.120;8.660;2023-02-11T05:47:33;6.80;86.10
13115;DHT22;6623;52.120;8.660;2023-02-11T05:49:58;6.70;86.00
13115;DHT22;6623;52.120;8.660;2023-02-11T05:52:24;6.80;86.10
13115;DHT22;6623;52.120;8.660;2023-02-11T05:54:50;6.80;86.10
13115;DHT22;6623;52.120;8.660;2023-02-11T05:57:15;6.80;86.10
13115;DHT22;6623;52.120;8.660;2023-02-11T05:59:41;6.80;86.10
13115;DHT22;6623;52.120;8.660;2023-02-11T06:02:08;6.80;86.10
13115;DHT22;6623;52.120;8.660;2023-02-11T06:04:40;6.80;86.00
13115;DHT22;6623;52.120;8.660;2023-02-11T06:07:05;6.90;86.10
13115;DHT22;6623;52.120;8.660;2023-02-11T06:09:31;6.80;86.00
13115;DHT22;6623;52.120;8.660;2023-02-11T06:12:03;6.80;86.00
13115;DHT22;6623;52.120;8.660;2023-02-11T06:14:28;6.80;86.10
13115;DHT22;6623;52.120;8.660;2023-02-11T06:16:59;6.80;86.00
13115;DHT22;6623;52.120;8.660;2023-02-11T06:19:25;6.80;86.00
13115;DHT22;6623;52.120;8.660;2023-02-11T06:21:51;6.80;86.10
13115;DHT22;6623;52.120;8.660;2023-02-11T06:24:16;6.80;86.10
13115;DHT22;6623;52.120;8.660;2023-02-11T06:26:42;6.80;86.10
13115;DHT22;6623;52.120;8.660;2023-02-11T06:29:10;6.80;86.10
13115;DHT22;6623;52.120;8.660;2023-02-11T06:31:37;6.80;86.00
13115;DHT22;6623;52.120;8.660;2023-02-11T06:34:03;6.80;86.00
13115;DHT22;6623;52.120;8.660;2023-02-11T06:36:29;6.80;86.00
13115;DHT22;6623;52.120;8.660;2023-02-11T06:38:55;6.80;86.00
13115;DHT22;6623;52.120;8.660;2023-02-11T06:41:21;6.80;86.30
13115;DHT22;6623;52.120;8.660;2023-02-11T06:43:47;6.90;86.10
13115;DHT22;6623;52.120;8.660;2023-02-11T06:46:13;6.90;86.10
13115;DHT22;6623;52.120;8.660;2023-02-11T06:48:39;6.80;86.00
13115;DHT22;6623;52.120;8.660;2023-02-11T06:51:06;6.90;86.10
13115;DHT22;6623;52.120;8.660;2023-02-11T06:53:35;6.80;86.00
13115;DHT22;6623;52.120;8.660;2023-02-11T06:56:06;6.90;86.00
13115;DHT22;6623;52.120;8.660;2023-02-11T06:58:32;6.90;86.10
13115;DHT22;6623;52.120;8.660;2023-02-11T07:00:58;6.90;86.00
13115;DHT22;6623;52.120;8.660;2023-02-11T07:03:25;6.90;86.00
13115;DHT22;6623;52.120;8.660;2023-02-11T07:05:50;6.90;86.00
13115;DHT22;6623;52.120;8.660;2023-02-11T07:08:16;6.90;86.00
13115;DHT22;6623;52.120;8.660;2023-02-11T07:10:41;6.90;86.00
13115;DHT22;6623;52.120;8.660;2023-02-11T07:13:07;6.90;86.00
13115;DHT22;6623;52.120;8.660;2023-02-11T07:15:32;6.90;86.00
13115;DHT22;6623;52.120;8.660;2023-02-11T07:17:58;6.90;86.00
13115;DHT22;6623;52.120;8.660;2023-02-11T07:20:24;6.90;86.10
13115;DHT22;6623;52.120;8.660;2023-02-11T07:22:53;6.90;86.00
13115;DHT22;6623;52.120;8.660;2023-02-11T07:25:19;6.90;86.00
13115;DHT22;6623;52.120;8.660;2023-02-11T07:27:44;6.90;86.00
13115;DHT22;6623;52.120;8.660;2023-02-11T07:30:11;6.90;86.00
13115;DHT22;6623;52.120;8.660;2023-02-11T07:32:36;6.90;86.10
13115;DHT22;6623;52.120;8.660;2023-02-11T07:35:02;6.90;86.00
13115;DHT22;6623;52.120;8.660;2023-02-11T07:37:28;6.90;86.00
13115;DHT22;6623;52.120;8.660;2023-02-11T07:40:03;6.90;86.70
13115;DHT22;6623;52.120;8.660;2023-02-11T07:42:28;6.90;86.10
13115;DHT22;6623;52.120;8.660;2023-02-11T07:44:54;6.90;86.10
13115;DHT22;6623;52.120;8.660;2023-02-11T07:47:19;7.00;86.20
13115;DHT22;6623;52.120;8.660;2023-02-11T07:49:45;6.90;86.10
13115;DHT22;6623;52.120;8.660;2023-02-11T07:52:11;6.90;86.20
13115;DHT22;6623;52.120;8.660;2023-02-11T07:54:37;6.90;86.20
13115;DHT22;6623;52.120;8.660;2023-02-11T07:57:03;6.90;86.10
13115;DHT22;6623;52.120;8.660;2023-02-11T07:59:28;7.00;86.20
13115;DHT22;6623;52.120;8.660;2023-02-11T08:01:54;6.90;86.20
13115;DHT22;6623;52.120;8.660;2023-02-11T08:04:19;6.90;86.20
13115;DHT22;6623;52.120;8.660;2023-02-11T08:06:45;7.00;86.30
13115;DHT22;6623;52.120;8.660;2023-02-11T08:09:14;7.00;86.30
13115;DHT22;6623;52.120;8.660;2023-02-11T08:11:41;7.00;86.30
13115;DHT22;6623;52.120;8.660;2023-02-11T08:14:08;7.00;86.30
13115;DHT22;6623;52.120;8.660;2023-02-11T08:16:34;7.00;86.30
13115;DHT22;6623;52.120;8.660;2023-02-11T08:19:07;7.00;86.40
13115;DHT22;6623;52.120;8.660;2023-02-11T08:21:33;7.00;86.30
13115;DHT22;6623;52.120;8.660;2023-02-11T08:24:00;7.00;86.40
13115;DHT22;6623;52.120;8.660;2023-02-11T08:26:27;7.10;86.50
13115;DHT22;6623;52.120;8.660;2023-02-11T08:28:55;7.00;86.40
13115;DHT22;6623;52.120;8.660;2023-02-11T08:31:23;7.10;86.50
13115;DHT22;6623;52.120;8.660;2023-02-11T08:33:49;7.10;86.40
13115;DHT22;6623;52.120;8.660;2023-02-11T08:36:21;7.10;86.50
13115;DHT22;6623;52.120;8.660;2023-02-11T08:38:47;7.10;86.40
13115;DHT22;6623;52.120;8.660;2023-02-11T08:41:13;7.10;86.60
13115;DHT22;6623;52.120;8.660;2023-02-11T08:43:39;7.10;86.60
13115;DHT22;6623;52.120;8.660;2023-02-11T08:46:07;7.10;86.60
13115;DHT22;6623;52.120;8.660;2023-02-11T08:48:32;7.10;86.60
13115;DHT22;6623;52.120;8.660;2023-02-11T08:50:58;7.10;86.60
13115;DHT22;6623;52.120;8.660;2023-02-11T08:53:24;7.10;86.60
13115;DHT22;6623;52.120;8.660;2023-02-11T08:55:53;7.20;86.60
13115;DHT22;6623;52.120;8.660;2023-02-11T08:58:20;7.10;86.60
13115;DHT22;6623;52.120;8.660;2023-02-11T09:00:46;7.20;86.60
13115;DHT22;6623;52.120;8.660;2023-02-11T09:03:12;7.20;86.70
13115;DHT22;6623;52.120;8.660;2023-02-11T09:05:45;7.30;86.80
13115;DHT22;6623;52.120;8.660;2023-02-11T09:08:11;7.20;86.80
13115;DHT22;6623;52.120;8.660;2023-02-11T09:10:38;7.20;86.80
13115;DHT22;6623;52.120;8.660;2023-02-11T09:13:04;7.20;86.90
13115;DHT22;6623;52.120;8.660;2023-02-11T09:15:29;7.30;87.00
13115;DHT22;6623;52.120;8.660;2023-02-11T09:17:55;7.30;87.00
13115;DHT22;6623;52.120;8.660;2023-02-11T09:20:21;7.40;86.90
13115;DHT22;6623;52.120;8.660;2023-02-11T09:22:47;7.30;86.80
13115;DHT22;6623;52.120;8.660;2023-02-11T09:25:15;7.30;86.70
13115;DHT22;6623;52.120;8.660;2023-02-11T09:27:41;7.30;86.70
13115;DHT22;6623;52.120;8.660;2023-02-11T09:30:06;7.50;86.90
13115;DHT22;6623;52.120;8.660;2023-02-11T09:32:33;7.30;86.80
13115;DHT22;6623;52.120;8.660;2023-02-11T09:34:58;7.40;87.00
13115;DHT22;6623;52.120;8.660;2023-02-11T09:37:24;7.40;87.00
13115;DHT22;6623;52.120;8.660;2023-02-11T09:39:49;7.40;87.00
13115;DHT22;6623;52.120;8.660;2023-02-11T09:42:44;7.40;87.00
13115;DHT22;6623;52.120;8.660;2023-02-11T09:45:32;7.40;86.90
13115;DHT22;6623;52.120;8.660;2023-02-11T09:48:11;7.50;87.00
13115;DHT22;6623;52.120;8.660;2023-02-11T09:50:45;7.50;86.90
13115;DHT22;6623;52.120;8.660;2023-02-11T09:55:47;7.40;86.80
13115;DHT22;6623;52.120;8.660;2023-02-11T09:58:32;7.50;86.80
13115;DHT22;6623;52.120;8.660;2023-02-11T10:06:34;7.50;86.70
13115;DHT22;6623;52.120;8.660;2023-02-11T10:22:53;7.90;87.20
13115;DHT22;6623;52.120;8.660;2023-02-11T10:25:41;7.60;87.00
13115;DHT22;6623;52.120;8.660;2023-02-11T10:28:18;7.60;87.00
13115;DHT22;6623;52.120;8.660;2023-02-11T10:33:38;7.60;87.20
13115;DHT22;6623;52.120;8.660;2023-02-11T10:36:16;7.60;87.10
13115;DHT22;6623;52.120;8.660;2023-02-11T10:38:43;7.70;87.10
13115;DHT22;6623;52.120;8.660;2023-02-11T10:41:28;7.60;87.00
13115;DHT22;6623;52.120;8.660;2023-02-11T10:43:55;7.60;87.20
13115;DHT22;6623;52.120;8.660;2023-02-11T10:46:35;7.60;87.20
13115;DHT22;6623;52.120;8.660;2023-02-11T10:49:04;7.60;87.30
13115;DHT22;6623;52.120;8.660;2023-02-11T10:51:32;7.50;87.40
13115;DHT22;6623;52.120;8.660;2023-02-11T10:56:36;7.60;87.80
13115;DHT22;6623;52.120;8.660;2023-02-11T10:59:25;7.60;87.90
13115;DHT22;6623;52.120;8.660;2023-02-11T11:01:55;7.70;88.20
13115;DHT22;6623;52.120;8.660;2023-02-11T11:04:34;7.70;88.30
13115;DHT22;6623;52.120;8.660;2023-02-11T11:07:23;7.70;88.30
13115;DHT22;6623;52.120;8.660;2023-02-11T11:14:57;7.90;88.50
13115;DHT22;6623;52.120;8.660;2023-02-11T11:17:23;7.90;88.50
13115;DHT22;6623;52.120;8.660;2023-02-11T11:20:00;8.00;88.40
13115;DHT22;6623;52.120;8.660;2023-02-11T11:22:37;8.00;88.40
13115;DHT22;6623;52.120;8.660;2023-02-11T11:25:03;8.00;88.40
13115;DHT22;6623;52.120;8.660;2023-02-11T11:27:29;8.10;88.40
13115;DHT22;6623;52.120;8.660;2023-02-11T11:29:55;8.10;88.40
13115;DHT22;6623;52.120;8.660;2023-02-11T11:32:35;8.10;88.30
13115;DHT22;6623;52.120;8.660;2023-02-11T11:35:04;8.10;88.20
13115;DHT22;6623;52.120;8.660;2023-02-11T11:37:35;8.20;88.40
13115;DHT22;6623;52.120;8.660;2023-02-11T11:42:40;8.30;88.30
13115;DHT22;6623;52.120;8.660;2023-02-11T11:50:57;8.40;87.90
13115;DHT22;6623;52.120;8.660;2023-02-11T11:53:40;8.40;87.80
13115;DHT22;6623;52.120;8.660;2023-02-11T11:56:16;8.40;87.80
13115;DHT22;6623;52.120;8.660;2023-02-11T11:58:44;8.40;87.60
13115;DHT22;6623;52.120;8.660;2023-02-11T12:07:10;8.50;87.70
13115;DHT22;6623;52.120;8.660;2023-02-11T12:20:21;8.50;87.20
13115;DHT22;6623;52.120;8.660;2023-02-11T12:25:59;8.50;87.00
13115;DHT22;6623;52.120;8.660;2023-02-11T12:28:54;8.50;87.00
13115;DHT22;6623;52.120;8.660;2023-02-11T12:31:33;8.60;86.90
13115;DHT22;6623;52.120;8.660;2023-02-11T12:40:08;8.50;86.70
13115;DHT22;6623;52.120;8.660;2023-02-11T12:46:08;8.50;86.70
13115;DHT22;6623;52.120;8.660;2023-02-11T12:59:32;8.60;87.20
13115;DHT22;6623;52.120;8.660;2023-02-11T13:02:00;8.60;86.90
13115;DHT22;6623;52.120;8.660;2023-02-11T13:04:36;8.70;86.80
13115;DHT22;6623;52.120;8.660;2023-02-11T13:07:32;8.70;86.90
13115;DHT22;6623;52.120;8.660;2023-02-11T13:12:35;8.80;86.90
13115;DHT22;6623;52.120;8.660;2023-02-11T13:15:26;8.80;86.80
13115;DHT22;6623;52.120;8.660;2023-02-11T13:31:53;9.00;86.40
13115;DHT22;6623;52.120;8.660;2023-02-11T13:34:23;9.00;86.20
13115;DHT22;6623;52.120;8.660;2023-02-11T13:36:56;9.00;86.10
13115;DHT22;6623;52.120;8.660;2023-02-11T13:39:22;8.90;86.00
13115;DHT22;6623;52.120;8.660;2023-02-11T13:41:48;8.90;85.90
13115;DHT22;6623;52.120;8.660;2023-02-11T13:44:21;8.90;86.00
13115;DHT22;6623;52.120;8.660;2023-02-11T13:49:38;8.90;86.00
13115;DHT22;6623;52.120;8.660;2023-02-11T13:52:28;9.00;85.90
13115;DHT22;6623;52.120;8.660;2023-02-11T13:57:40;9.00;85.80
13115;DHT22;6623;52.120;8.660;2023-02-11T14:00:43;9.00;85.80
13115;DHT22;6623;52.120;8.660;2023-02-11T14:03:33;9.00;85.80
13115;DHT22;6623;52.120;8.660;2023-02-11T14:06:21;9.00;85.70
13115;DHT22;6623;52.120;8.660;2023-02-11T14:09:33;9.00;85.70
13115;DHT22;6623;52.120;8.660;2023-02-11T14:12:21;9.00;85.70
13115;DHT22;6623;52.120;8.660;2023-02-11T14:15:19;9.00;85.70
13115;DHT22;6623;52.120;8.660;2023-02-11T14:17:43;9.00;85.60
13115;DHT22;6623;52.120;8.660;2023-02-11T14:20:37;9.00;85.50
13115;DHT22;6623;52.120;8.660;2023-02-11T14:23:21;9.00;85.40
13115;DHT22;6623;52.120;8.660;2023-02-11T14:29:18;9.00;85.40
13115;DHT22;6623;52.120;8.660;2023-02-11T14:34:43;9.00;85.50
13115;DHT22;6623;52.120;8.660;2023-02-11T14:42:53;9.10;85.50
13115;DHT22;6623;52.120;8.660;2023-02-11T14:45:23;9.10;85.50
13115;DHT22;6623;52.120;8.660;2023-02-11T14:48:03;9.10;85.50
13115;DHT22;6623;52.120;8.660;2023-02-11T14:50:47;9.10;85.40
13115;DHT22;6623;52.120;8.660;2023-02-11T14:53:15;9.10;85.30
13115;DHT22;6623;52.120;8.660;2023-02-11T14:55:47;9.10;85.20
13115;DHT22;6623;52.120;8.660;2023-02-11T14:58:18;9.10;85.20
13115;DHT22;6623;52.120;8.660;2023-02-11T15:00:57;9.10;85.20
13115;DHT22;6623;52.120;8.660;2023-02-11T15:03:37;9.10;85.10
13115;DHT22;6623;52.120;8.660;2023-02-11T15:08:29;9.10;85.20
13115;DHT22;6623;52.120;8.660;2023-02-11T15:10:55;9.00;85.10
13115;DHT22;6623;52.120;8.660;2023-02-11T15:13:24;9.10;85.20
13115;DHT22;6623;52.120;8.660;2023-02-11T15:16:27;9.00;85.20
13115;DHT22;6623;52.120;8.660;2023-02-11T15:19:04;9.10;85.30
13115;DHT22;6623;52.120;8.660;2023-02-11T15:21:33;9.10;85.60
13115;DHT22;6623;52.120;8.660;2023-02-11T15:24:21;9.10;85.30
13115;DHT22;6623;52.120;8.660;2023-02-11T15:27:15;9.10;85.30
13115;DHT22;6623;52.120;8.660;2023-02-11T15:29:44;9.10;85.30
13115;DHT22;6623;52.120;8.660;2023-02-11T15:32:22;9.10;85.20
13115;DHT22;6623;52.120;8.660;2023-02-11T15:34:50;9.10;85.10
13115;DHT22;6623;52.120;8.660;2023-02-11T15:37:20;9.30;85.20
13115;DHT22;6623;52.120;8.660;2023-02-11T15:39:51;9.10;85.10
13115;DHT22;6623;52.120;8.660;2023-02-11T15:42:25;9.10;85.20
13115;DHT22;6623;52.120;8.660;2023-02-11T15:47:40;9.10;85.20
13115;DHT22;6623;52.120;8.660;2023-02-11T15:50:15;9.00;85.20
13115;DHT22;6623;52.120;8.660;2023-02-11T15:52:44;9.00;85.20
13115;DHT22;6623;52.120;8.660;2023-02-11T15:55:13;9.00;85.20
13115;DHT22;6623;52.120;8.660;2023-02-11T15:57:53;9.00;85.30
13115;DHT22;6623;52.120;8.660;2023-02-11T16:00:24;9.00;85.80
13115;DHT22;6623;52.120;8.660;2023-02-11T16:02:51;9.10;85.30
13115;DHT22;6623;52.120;8.660;2023-02-11T16:05:32;9.00;85.20
13115;DHT22;6623;52.120;8.660;2023-02-11T16:07:59;9.10;85.30
13115;DHT22;6623;52.120;8.660;2023-02-11T16:10:32;9.10;85.30
13115;DHT22;6623;52.120;8.660;2023-02-11T16:13:14;9.10;85.30
13115;DHT22;6623;52.120;8.660;2023-02-11T16:20:39;9.10;85.30
13115;DHT22;6623;52.120;8.660;2023-02-11T16:23:06;9.00;85.30
13115;DHT22;6623;52.120;8.660;2023-02-11T16:25:34;9.00;85.20
13115;DHT22;6623;52.120;8.660;2023-02-11T16:28:00;9.10;85.30
13115;DHT22;6623;52.120;8.660;2023-02-11T16:30:34;9.10;85.40
13115;DHT22;6623;52.120;8.660;2023-02-11T16:33:02;9.10;85.40
13115;DHT22;6623;52.120;8.660;2023-02-11T16:35:28;9.10;85.30
13115;DHT22;6623;52.120;8.660;2023-02-11T16:37:54;9.00;85.30
13115;DHT22;6623;52.120;8.660;2023-02-11T16:40:20;9.00;85.30
13115;DHT22;6623;52.120;8.660;2023-02-11T16:42:48;9.10;85.30
13115;DHT22;6623;52.120;8.660;2023-02-11T16:45:14;9.10;85.40
13115;DHT22;6623;52.120;8.660;2023-02-11T16:47:40;9.10;85.40
13115;DHT22;6623;52.120;8.660;2023-02-11T16:50:18;9.10;85.30
13115;DHT22;6623;52.120;8.660;2023-02-11T16:52:44;9.00;85.30
13115;DHT22;6623;52.120;8.660;2023-02-11T16:55:11;9.00;85.30
13115;DHT22;6623;52.120;8.660;2023-02-11T16:57:37;9.00;85.40
13115;DHT22;6623;52.120;8.660;2023-02-11T17:00:07;9.00;85.30
13115;DHT22;6623;52.120;8.660;2023-02-11T17:02:33;9.00;85.30
13115;DHT22;6623;52.120;8.660;2023-02-11T17:05:05;9.00;85.40
13115;DHT22;6623;52.120;8.660;2023-02-11T17:07:31;9.00;85.40
13115;DHT22;6623;52.120;8.660;2023-02-11T17:09:57;9.00;85.50
13115;DHT22;6623;52.120;8.660;2023-02-11T17:12:23;9.00;85.50
13115;DHT22;6623;52.120;8.660;2023-02-11T17:14:52;9.00;85.40
13115;DHT22;6623;52.120;8.660;2023-02-11T17:17:18;9.00;85.40
13115;DHT22;6623;52.120;8.660;2023-02-11T17:19:43;9.00;85.50
13115;DHT22;6623;52.120;8.660;2023-02-11T17:22:10;9.00;85.50
13115;DHT22;6623;52.120;8.660;2023-02-11T17:24:38;9.00;85.50
13115;DHT22;6623;52.120;8.660;2023-02-11T17:27:03;9.00;85.50
13115;DHT22;6623;52.120;8.660;2023-02-11T17:29:29;9.00;85.50
13115;DHT22;6623;52.120;8.660;2023-02-11T17:31:54;9.00;85.50
13115;DHT22;6623;52.120;8.660;2023-02-11T17:34:21;9.00;85.60
13115;DHT22;6623;52.120;8.660;2023-02-11T17:36:47;9.00;85.60
13115;DHT22;6623;52.120;8.660;2023-02-11T17:39:13;9.00;85.60
13115;DHT22;6623;52.120;8.660;2023-02-11T17:41:39;9.00;85.60
13115;DHT22;6623;52.120;8.660;2023-02-11T17:44:05;9.00;85.60
13115;DHT22;6623;52.120;8.660;2023-02-11T17:46:33;9.00;85.60
13115;DHT22;6623;52.120;8.660;2023-02-11T17:49:00;9.00;85.60
13115;DHT22;6623;52.120;8.660;2023-02-11T17:51:31;9.00;85.60
13115;DHT22;6623;52.120;8.660;2023-02-11T17:54:01;9.00;85.60
13115;DHT22;6623;52.120;8.660;2023-02-11T17:56:27;9.00;85.60
13115;DHT22;6623;52.120;8.660;2023-02-11T17:58:55;9.00;85.60
13115;DHT22;6623;52.120;8.660;2023-02-11T18:01:20;9.00;85.60
13115;DHT22;6623;52.120;8.660;2023-02-11T18:03:46;9.00;85.60
13115;DHT22;6623;52.120;8.660;2023-02-11T18:06:12;9.00;85.60
13115;DHT22;6623;52.120;8.660;2023-02-11T18:08:37;9.00;85.60
13115;DHT22;6623;52.120;8.660;2023-02-11T18:11:07;9.00;85.70
13115;DHT22;6623;52.120;8.660;2023-02-11T18:13:33;9.00;85.70
13115;DHT22;6623;52.120;8.660;2023-02-11T18:16:03;9.00;85.60
13115;DHT22;6623;52.120;8.660;2023-02-11T18:18:33;9.00;85.70
13115;DHT22;6623;52.120;8.660;2023-02-11T18:21:02;9.10;85.70
13115;DHT22;6623;52.120;8.660;2023-02-11T18:23:33;9.10;85.70
13115;DHT22;6623;52.120;8.660;2023-02-11T18:26:02;9.10;85.70
13115;DHT22;6623;52.120;8.660;2023-02-11T18:28:30;9.10;85.60
13115;DHT22;6623;52.120;8.660;2023-02-11T18:30:59;9.00;85.50
13115;DHT22;6623;52.120;8.660;2023-02-11T18:33:26;9.00;85.60
13115;DHT22;6623;52.120;8.660;2023-02-11T18:35:52;9.10;85.70
13115;DHT22;6623;52.120;8.660;2023-02-11T18:38:18;9.00;85.60
13115;DHT22;6623;52.120;8.660;2023-02-11T18:40:44;9.10;85.70
13115;DHT22;6623;52.120;8.660;2023-02-11T18:43:12;9.10;85.60